Time;durP1;ratioP1;P1;durP2;ratioP2;P2;SDS_P1;SDS_P2;PMS_P1;PMS_P2;Temp;Humidity;BMP_temperature;BMP_pressure;BME280_temperature;BME280_humidity;BME280_pressure;Samples;Min_cycle;Max_cycle;Signal;HPM_P1;HPM_P2
2022/10/27 00:00:49;;;;;;;1.40;1.30;;;14.20;99.90;;;;;;5025850;28;20204;-62
2022/10/27 00:03:17;;;;;;;1.47;1.37;;;14.10;99.90;;;;;;5025266;28;20223;-63
2022/10/27 00:05:45;;;;;;;3.03;1.80;;;14.20;99.90;;;;;;5025435;28;20215;-62
2022/10/27 00:08:14;;;;;;;3.03;1.90;;;14.30;99.90;;;;;;5018547;28;20220;-63
2022/10/27 00:10:43;;;;;;;1.50;1.40;;;14.30;99.90;;;;;;5025551;28;20209;-62
2022/10/27 00:13:10;;;;;;;2.03;1.50;;;14.40;99.90;;;;;;5025919;28;20282;-63
2022/10/27 00:15:39;;;;;;;1.77;1.67;;;14.30;99.90;;;;;;5026382;28;20205;-62
2022/10/27 00:18:10;;;;;;;1.50;1.40;;;14.20;99.90;;;;;;5024842;28;20576;-62
2022/10/27 00:20:37;;;;;;;1.87;1.30;;;14.20;99.90;;;;;;5027605;28;20217;-62
2022/10/27 00:23:04;;;;;;;1.90;1.70;;;14.20;99.90;;;;;;5026894;28;20578;-63
2022/10/27 00:25:31;;;;;;;2.17;1.70;;;14.20;99.90;;;;;;5027331;28;20215;-63
2022/10/27 00:27:57;;;;;;;2.20;1.63;;;14.20;99.90;;;;;;5023754;28;20227;-64
2022/10/27 00:30:24;;;;;;;2.17;1.47;;;14.10;99.90;;;;;;5024833;28;20207;-64
2022/10/27 00:32:53;;;;;;;1.90;1.50;;;14.10;99.90;;;;;;5043061;28;20292;-64
2022/10/27 00:35:20;;;;;;;1.37;1.27;;;14.10;99.90;;;;;;5046232;28;20269;-63
2022/10/27 00:37:47;;;;;;;2.10;1.60;;;14.10;99.90;;;;;;5022841;28;20232;-61
2022/10/27 00:40:14;;;;;;;1.87;1.40;;;14.10;99.90;;;;;;5027646;28;20227;-64
2022/10/27 00:42:40;;;;;;;1.53;1.43;;;14.10;99.90;;;;;;5021619;28;20578;-63
2022/10/27 00:45:08;;;;;;;2.70;1.53;;;14.10;99.90;;;;;;5027040;28;20201;-63
2022/10/27 00:47:37;;;;;;;2.77;1.47;;;14.10;99.90;;;;;;5023420;28;20705;-63
2022/10/27 00:50:09;;;;;;;1.40;1.30;;;14.10;99.90;;;;;;5020991;28;20211;-61
2022/10/27 00:52:39;;;;;;;1.60;1.50;;;14.00;99.90;;;;;;5017190;28;20208;-62
2022/10/27 00:55:10;;;;;;;1.63;1.40;;;14.10;99.90;;;;;;5013600;28;20675;-63
2022/10/27 00:57:38;;;;;;;1.40;1.30;;;14.10;99.90;;;;;;5018626;28;20283;-63
2022/10/27 01:00:07;;;;;;;2.13;1.33;;;14.10;99.90;;;;;;5017340;28;20664;-62
2022/10/27 01:02:35;;;;;;;2.37;1.30;;;14.10;99.90;;;;;;5002657;28;20206;-62
2022/10/27 01:05:09;;;;;;;1.40;1.30;;;14.10;99.90;;;;;;4999060;28;20307;-63
2022/10/27 01:07:36;;;;;;;1.60;1.50;;;14.10;99.90;;;;;;4996027;28;20709;-63
2022/10/27 01:10:04;;;;;;;2.57;1.73;;;14.10;99.90;;;;;;4997779;28;20510;-63
2022/10/27 01:12:31;;;;;;;2.03;1.40;;;14.00;99.90;;;;;;5000052;28;20210;-63
2022/10/27 01:14:59;;;;;;;2.03;1.83;;;13.90;99.90;;;;;;5000388;28;20213;-64
2022/10/27 01:17:39;;;;;;;1.50;1.40;;;13.80;99.90;;;;;;4994946;28;20522;-64
2022/10/27 01:20:37;;;;;;;2.10;1.40;;;13.80;99.90;;;;;;4996907;28;20306;-63
2022/10/27 01:23:11;;;;;;;1.30;1.30;;;13.80;99.90;;;;;;4989338;28;20202;-62
2022/10/27 01:26:06;;;;;;;1.17;1.10;;;13.80;99.90;;;;;;5000342;28;20206;-63
2022/10/27 01:29:17;;;;;;;2.00;1.40;;;13.90;99.90;;;;;;4979311;28;20235;-62
2022/10/27 01:31:51;;;;;;;2.03;1.63;;;13.80;99.90;;;;;;4956194;28;20212;-63
2022/10/27 01:34:24;;;;;;;2.50;1.33;;;13.70;99.90;;;;;;5019506;28;20197;-62
2022/10/27 01:36:55;;;;;;;1.30;1.20;;;13.70;99.90;;;;;;5027573;28;20216;-63
2022/10/27 01:39:26;;;;;;;1.67;1.57;;;13.60;99.90;;;;;;5032451;28;20224;-62
2022/10/27 01:41:58;;;;;;;1.70;1.50;;;13.60;99.90;;;;;;5024200;28;20235;-62
2022/10/27 01:44:29;;;;;;;1.80;1.60;;;13.60;99.90;;;;;;5028114;28;20200;-63
2022/10/27 01:46:58;;;;;;;1.97;1.20;;;13.70;99.90;;;;;;5025463;28;20634;-64
2022/10/27 01:49:25;;;;;;;1.57;1.37;;;13.60;99.90;;;;;;5016094;28;20228;-63
2022/10/27 01:51:52;;;;;;;2.87;1.43;;;13.60;99.90;;;;;;5026812;28;20590;-64
2022/10/27 01:54:20;;;;;;;1.30;1.20;;;13.60;99.90;;;;;;5021072;28;20247;-63
2022/10/27 01:57:11;;;;;;;1.70;1.30;;;13.50;99.90;;;;;;5027492;28;20205;-63
2022/10/27 01:59:55;;;;;;;1.47;1.27;;;13.50;99.90;;;;;;5016342;28;20240;-63
2022/10/27 02:02:33;;;;;;;1.37;1.27;;;13.50;99.90;;;;;;5015700;28;20220;-63
2022/10/27 02:05:06;;;;;;;1.93;1.30;;;13.40;99.90;;;;;;5023944;28;20212;-62
2022/10/27 02:07:47;;;;;;;1.20;1.10;;;13.50;99.90;;;;;;5022941;28;20205;-64
2022/10/27 02:10:18;;;;;;;1.40;1.30;;;13.50;99.90;;;;;;5013629;28;20197;-62
2022/10/27 02:12:46;;;;;;;1.40;1.30;;;13.50;99.90;;;;;;5021978;28;20295;-65
2022/10/27 02:15:23;;;;;;;1.57;1.40;;;13.60;99.90;;;;;;5023919;28;20197;-63
2022/10/27 02:17:53;;;;;;;1.70;1.30;;;13.70;99.90;;;;;;5023263;28;20225;-63
2022/10/27 02:20:23;;;;;;;1.63;1.50;;;13.70;99.90;;;;;;5023668;28;20852;-64
2022/10/27 02:22:53;;;;;;;1.40;1.30;;;13.70;99.90;;;;;;5021604;28;20243;-64
2022/10/27 02:25:24;;;;;;;1.00;1.00;;;13.60;99.90;;;;;;5021780;28;20205;-63
2022/10/27 02:27:56;;;;;;;1.40;1.30;;;13.60;99.90;;;;;;5022349;28;20232;-64
2022/10/27 02:30:23;;;;;;;1.60;1.07;;;13.60;99.90;;;;;;5020518;28;20201;-65
2022/10/27 02:32:51;;;;;;;1.40;1.30;;;13.50;99.90;;;;;;5020955;28;20212;-64
2022/10/27 02:35:18;;;;;;;1.57;1.43;;;13.50;99.90;;;;;;5024557;28;20295;-62
2022/10/27 02:37:46;;;;;;;1.60;1.50;;;13.50;99.90;;;;;;5021302;28;20239;-62
2022/10/27 02:40:13;;;;;;;1.50;1.20;;;13.50;99.90;;;;;;5027339;28;20222;-64
2022/10/27 02:42:39;;;;;;;2.00;1.10;;;13.50;99.90;;;;;;5019777;28;20220;-62
2022/10/27 02:45:07;;;;;;;2.20;1.30;;;13.50;99.90;;;;;;5027420;28;20560;-64
2022/10/27 02:47:34;;;;;;;2.17;1.37;;;13.50;99.90;;;;;;5020283;28;20288;-64
2022/10/27 02:50:02;;;;;;;1.63;1.37;;;13.50;99.90;;;;;;5022978;28;20561;-62
2022/10/27 02:52:29;;;;;;;1.48;1.30;;;13.50;99.90;;;;;;5022926;28;20201;-62
2022/10/27 02:54:56;;;;;;;1.37;1.27;;;13.40;99.90;;;;;;5026109;28;20707;-62
2022/10/27 02:57:22;;;;;;;1.40;1.30;;;13.40;99.90;;;;;;5028406;28;20216;-64
2022/10/27 02:59:49;;;;;;;1.27;1.17;;;13.40;99.90;;;;;;5025428;28;20229;-62
2022/10/27 03:02:16;;;;;;;1.33;1.23;;;13.40;99.90;;;;;;5030266;28;20202;-64
2022/10/27 03:04:43;;;;;;;1.40;1.30;;;13.40;99.90;;;;;;5024495;28;20201;-61
2022/10/27 03:07:11;;;;;;;1.37;1.30;;;13.30;99.90;;;;;;5027497;28;20197;-63
2022/10/27 03:09:38;;;;;;;1.20;1.20;;;13.30;99.90;;;;;;5025610;28;20223;-62
2022/10/27 03:12:05;;;;;;;1.50;1.40;;;13.30;99.90;;;;;;5027231;28;20201;-64
2022/10/27 03:14:31;;;;;;;1.77;1.40;;;13.30;99.90;;;;;;5026956;28;20211;-64
2022/10/27 03:16:58;;;;;;;3.83;1.53;;;13.30;99.90;;;;;;5026648;28;20209;-64
2022/10/27 03:19:25;;;;;;;2.20;1.43;;;13.20;99.90;;;;;;5028078;28;20598;-64
2022/10/27 03:21:52;;;;;;;1.40;1.30;;;13.20;99.90;;;;;;5024819;28;20205;-63
2022/10/27 03:24:20;;;;;;;1.70;1.60;;;13.20;99.90;;;;;;5027036;28;20660;-63
2022/10/27 03:26:47;;;;;;;1.70;1.40;;;13.20;99.90;;;;;;5024964;28;20211;-62
2022/10/27 03:29:13;;;;;;;1.37;1.27;;;13.20;99.90;;;;;;5027063;28;20220;-62
2022/10/27 03:31:40;;;;;;;1.60;1.50;;;13.20;99.90;;;;;;5026704;28;20208;-63
2022/10/27 03:34:07;;;;;;;1.73;1.30;;;13.30;99.90;;;;;;5016749;28;20204;-65
2022/10/27 03:36:35;;;;;;;1.40;1.30;;;13.30;99.90;;;;;;5027111;28;20303;-64
2022/10/27 03:39:02;;;;;;;1.10;1.00;;;13.30;99.90;;;;;;5025390;28;20225;-61
2022/10/27 03:41:30;;;;;;;1.40;1.30;;;13.30;99.90;;;;;;5027078;28;20280;-61
2022/10/27 03:43:56;;;;;;;1.40;1.30;;;13.30;99.90;;;;;;5025499;28;20640;-63
2022/10/27 03:46:23;;;;;;;1.50;1.40;;;13.30;99.90;;;;;;5026579;28;20203;-62
2022/10/27 03:48:50;;;;;;;1.40;1.30;;;13.30;99.90;;;;;;5025066;28;20338;-61
2022/10/27 03:51:17;;;;;;;1.50;1.40;;;13.20;99.90;;;;;;5025941;28;20203;-64
2022/10/27 03:53:44;;;;;;;1.50;1.40;;;13.20;99.90;;;;;;5025647;28;20693;-64
2022/10/27 03:56:12;;;;;;;1.40;1.20;;;13.30;99.90;;;;;;5025531;28;20201;-64
2022/10/27 03:58:41;;;;;;;1.40;1.30;;;13.20;99.90;;;;;;5026309;28;20236;-62
2022/10/27 04:01:07;;;;;;;1.37;1.27;;;13.20;99.90;;;;;;5024327;28;20762;-65
2022/10/27 04:03:34;;;;;;;1.13;1.07;;;13.20;99.90;;;;;;5026685;28;20219;-62
2022/10/27 04:06:01;;;;;;;1.83;1.23;;;13.10;99.90;;;;;;5022481;28;20215;-63
2022/10/27 04:08:28;;;;;;;1.50;1.40;;;13.10;99.90;;;;;;5027393;28;20221;-63
2022/10/27 04:10:55;;;;;;;1.20;1.20;;;13.00;99.90;;;;;;5024717;28;20203;-63
2022/10/27 04:13:21;;;;;;;1.27;1.23;;;13.10;99.90;;;;;;5026616;28;20233;-63
2022/10/27 04:15:50;;;;;;;1.37;1.27;;;13.00;99.90;;;;;;5025069;28;20205;-62
2022/10/27 04:18:16;;;;;;;1.40;1.33;;;13.00;99.90;;;;;;5026595;28;20228;-63
2022/10/27 04:20:43;;;;;;;1.30;1.20;;;13.00;99.90;;;;;;5035796;23;20235;-69
2022/10/27 04:23:10;;;;;;;1.30;1.20;;;12.90;99.90;;;;;;4990354;28;20213;-67
2022/10/27 04:25:37;;;;;;;1.40;1.30;;;12.90;99.90;;;;;;4995362;28;20248;-69
2022/10/27 04:28:05;;;;;;;1.57;1.33;;;12.90;99.90;;;;;;4995287;28;20563;-69
2022/10/27 04:30:32;;;;;;;1.40;1.30;;;12.90;99.90;;;;;;4996247;28;20198;-69
2022/10/27 04:33:01;;;;;;;1.30;1.20;;;12.90;99.90;;;;;;5012875;28;20223;-68
2022/10/27 04:35:28;;;;;;;1.17;1.13;;;12.90;99.90;;;;;;5014610;28;20208;-68
2022/10/27 04:37:56;;;;;;;1.47;1.37;;;12.90;99.90;;;;;;5015106;28;20213;-69
2022/10/27 04:40:23;;;;;;;1.90;1.43;;;12.90;99.90;;;;;;5013962;28;20267;-68
2022/10/27 04:42:50;;;;;;;1.10;1.10;;;12.90;99.90;;;;;;5013595;28;20288;-68
2022/10/27 04:45:17;;;;;;;2.17;1.40;;;13.10;99.90;;;;;;5020607;28;20570;-68
2022/10/27 04:47:44;;;;;;;1.40;1.30;;;12.90;99.90;;;;;;5014469;28;20201;-69
2022/10/27 04:50:13;;;;;;;1.50;1.40;;;12.90;99.90;;;;;;5014082;28;20198;-67
2022/10/27 04:52:40;;;;;;;1.30;1.20;;;12.90;99.90;;;;;;5014540;28;20229;-68
2022/10/27 04:55:08;;;;;;;1.83;1.40;;;13.00;99.90;;;;;;5009155;28;20224;-68
2022/10/27 04:57:35;;;;;;;1.10;1.10;;;13.00;99.90;;;;;;5014268;28;20293;-67
2022/10/27 05:00:02;;;;;;;1.30;1.20;;;12.90;99.90;;;;;;5013658;28;20729;-69
2022/10/27 05:02:29;;;;;;;2.23;1.20;;;12.90;99.90;;;;;;5013942;28;20283;-68
2022/10/27 05:04:55;;;;;;;1.17;1.10;;;12.90;99.90;;;;;;5016124;28;20210;-67
2022/10/27 05:07:24;;;;;;;1.17;1.10;;;13.00;99.90;;;;;;5011874;28;20201;-70
2022/10/27 05:09:50;;;;;;;1.67;1.37;;;13.00;99.90;;;;;;5013489;28;20668;-67
2022/10/27 05:12:17;;;;;;;1.40;1.30;;;13.00;99.90;;;;;;5013091;28;20316;-68
2022/10/27 05:14:44;;;;;;;0.90;0.90;;;13.10;99.90;;;;;;5013693;28;20201;-68
2022/10/27 05:17:11;;;;;;;1.40;1.30;;;13.10;99.90;;;;;;5015587;28;20206;-67
2022/10/27 05:19:38;;;;;;;1.00;1.00;;;13.10;99.90;;;;;;5018623;28;20205;-68
2022/10/27 05:22:04;;;;;;;1.00;1.00;;;13.10;99.90;;;;;;5013702;28;20233;-68
2022/10/27 05:24:33;;;;;;;1.30;1.20;;;13.10;99.90;;;;;;5013996;28;20227;-69
2022/10/27 05:26:59;;;;;;;1.90;1.23;;;13.20;99.90;;;;;;5020053;28;20206;-68
2022/10/27 05:29:26;;;;;;;1.00;1.00;;;13.20;99.90;;;;;;5019939;28;20200;-69
2022/10/27 05:31:54;;;;;;;1.30;1.20;;;13.20;99.90;;;;;;5006681;28;20217;-69
2022/10/27 05:34:21;;;;;;;1.17;1.17;;;13.20;99.90;;;;;;5013486;28;20202;-68
2022/10/27 05:36:48;;;;;;;1.33;1.23;;;13.30;99.90;;;;;;5017294;28;20292;-70
2022/10/27 05:39:15;;;;;;;0.90;0.90;;;13.30;99.90;;;;;;5014775;28;20207;-69
2022/10/27 05:41:43;;;;;;;1.77;1.33;;;13.20;99.90;;;;;;5017223;28;20240;-68
2022/10/27 05:44:10;;;;;;;1.30;1.20;;;13.20;99.90;;;;;;5016069;28;20232;-67
2022/10/27 05:46:36;;;;;;;2.10;1.37;;;13.20;99.90;;;;;;5017779;28;20205;-66
2022/10/27 05:49:03;;;;;;;2.33;1.20;;;13.20;99.90;;;;;;5025127;28;20296;-70
2022/10/27 05:51:30;;;;;;;1.30;1.10;;;13.10;99.90;;;;;;5022105;28;20222;-68
2022/10/27 05:53:57;;;;;;;1.37;1.10;;;13.10;99.90;;;;;;5016753;28;20804;-68
2022/10/27 05:56:24;;;;;;;1.00;1.00;;;13.00;99.90;;;;;;5013635;28;20201;-66
2022/10/27 05:58:52;;;;;;;1.47;1.37;;;12.90;99.90;;;;;;5008765;28;20287;-66
2022/10/27 06:01:19;;;;;;;1.30;1.20;;;12.70;99.90;;;;;;5011744;28;20225;-66
2022/10/27 06:03:47;;;;;;;1.30;1.20;;;12.60;99.90;;;;;;5015315;28;20207;-67
2022/10/27 06:06:15;;;;;;;1.60;1.40;;;12.60;99.90;;;;;;5013417;28;20209;-69
2022/10/27 06:08:42;;;;;;;1.30;1.20;;;12.60;99.90;;;;;;5014687;28;20201;-65
2022/10/27 06:11:09;;;;;;;1.20;1.10;;;12.50;99.90;;;;;;5015883;28;20217;-69
2022/10/27 06:13:36;;;;;;;0.90;0.90;;;12.60;99.90;;;;;;5012178;28;20899;-70
2022/10/27 06:16:04;;;;;;;1.27;1.20;;;12.60;99.90;;;;;;5012062;28;20292;-68
2022/10/27 06:18:31;;;;;;;1.10;1.10;;;12.60;99.90;;;;;;5010650;28;20201;-69
2022/10/27 06:20:58;;;;;;;1.93;1.40;;;12.70;99.90;;;;;;5007708;28;20252;-68
2022/10/27 06:23:25;;;;;;;1.20;1.10;;;12.70;99.90;;;;;;5009226;28;20241;-72
2022/10/27 06:25:51;;;;;;;1.47;1.07;;;12.80;99.90;;;;;;5012392;28;20211;-68
2022/10/27 06:28:20;;;;;;;1.50;1.20;;;12.80;99.90;;;;;;5003249;28;20292;-66
2022/10/27 06:30:47;;;;;;;1.40;1.30;;;12.90;99.90;;;;;;5007914;28;20225;-67
2022/10/27 06:33:15;;;;;;;1.60;1.50;;;12.90;99.90;;;;;;5010929;28;20201;-68
2022/10/27 06:35:44;;;;;;;1.50;1.40;;;12.90;99.90;;;;;;5010634;28;20679;-67
2022/10/27 06:38:15;;;;;;;1.27;1.17;;;13.00;99.90;;;;;;5006422;28;20209;-68
2022/10/27 06:40:42;;;;;;;1.43;1.33;;;13.00;99.90;;;;;;5003020;28;20269;-70
2022/10/27 06:43:09;;;;;;;1.70;1.60;;;13.10;99.90;;;;;;5010638;28;20211;-68
2022/10/27 06:45:37;;;;;;;2.60;2.00;;;13.10;99.90;;;;;;5010736;28;20219;-68
2022/10/27 06:48:06;;;;;;;1.63;1.47;;;13.20;99.90;;;;;;5009727;28;20232;-70
2022/10/27 06:50:34;;;;;;;1.40;1.30;;;13.20;99.90;;;;;;5013039;28;20280;-69
2022/10/27 06:53:02;;;;;;;1.27;1.23;;;13.30;99.90;;;;;;5011698;28;20219;-69
2022/10/27 06:55:30;;;;;;;1.10;1.10;;;13.40;99.90;;;;;;5012459;28;20212;-68
2022/10/27 06:57:57;;;;;;;1.30;1.23;;;13.40;99.90;;;;;;5013334;28;20209;-70
2022/10/27 07:00:24;;;;;;;1.50;1.40;;;13.50;99.90;;;;;;5013068;28;20217;-68
2022/10/27 07:02:52;;;;;;;1.50;1.40;;;13.50;99.90;;;;;;5012477;28;20216;-70
2022/10/27 07:05:19;;;;;;;1.67;1.57;;;13.50;99.90;;;;;;5012597;28;20229;-69
2022/10/27 07:07:48;;;;;;;1.23;1.20;;;13.60;99.90;;;;;;5012433;28;20202;-71
2022/10/27 07:10:15;;;;;;;1.00;1.00;;;13.60;99.90;;;;;;5013118;28;20205;-69
2022/10/27 07:12:52;;;;;;;1.43;1.30;;;13.70;99.90;;;;;;5012221;28;20268;-69
2022/10/27 07:15:19;;;;;;;1.30;1.20;;;13.80;99.90;;;;;;5012405;28;20212;-70
2022/10/27 07:17:46;;;;;;;1.50;1.40;;;13.90;99.90;;;;;;5006364;28;20205;-69
2022/10/27 07:20:13;;;;;;;1.40;1.30;;;13.90;99.90;;;;;;5009276;28;20198;-71
2022/10/27 07:22:41;;;;;;;1.20;1.10;;;13.90;99.90;;;;;;5011468;28;20252;-68
2022/10/27 07:25:09;;;;;;;1.00;1.00;;;13.90;99.90;;;;;;5011127;28;20252;-68
2022/10/27 07:27:36;;;;;;;1.17;1.17;;;13.90;99.90;;;;;;5012539;28;20288;-67
2022/10/27 07:30:03;;;;;;;1.20;1.20;;;14.00;99.90;;;;;;5003410;28;20206;-70
2022/10/27 07:32:30;;;;;;;1.60;1.50;;;14.00;99.90;;;;;;5000646;28;20228;-68
2022/10/27 07:34:57;;;;;;;1.20;1.20;;;14.10;99.90;;;;;;5002402;28;20652;-70
2022/10/27 07:37:24;;;;;;;1.60;1.50;;;14.10;99.90;;;;;;5006388;28;20277;-69
2022/10/27 07:39:50;;;;;;;1.30;1.20;;;14.10;99.90;;;;;;5005626;28;20303;-67
2022/10/27 07:42:19;;;;;;;1.43;1.33;;;14.20;99.90;;;;;;5014703;28;20675;-69
2022/10/27 07:44:45;;;;;;;1.50;1.40;;;14.30;99.90;;;;;;5015425;28;20197;-70
2022/10/27 07:47:12;;;;;;;1.33;1.30;;;14.30;99.90;;;;;;5020957;28;20209;-70
2022/10/27 07:49:39;;;;;;;1.33;1.23;;;14.40;99.90;;;;;;5006832;28;20204;-68
2022/10/27 07:52:06;;;;;;;1.53;1.33;;;14.40;99.90;;;;;;5012975;28;20237;-70
2022/10/27 07:54:33;;;;;;;1.50;1.40;;;14.60;99.90;;;;;;5011853;28;20579;-68
2022/10/27 07:57:00;;;;;;;1.23;1.10;;;14.60;99.90;;;;;;5015331;28;20214;-70
2022/10/27 07:59:29;;;;;;;1.70;1.40;;;14.70;99.90;;;;;;5013503;28;20284;-69
2022/10/27 08:01:55;;;;;;;2.57;1.30;;;14.80;99.90;;;;;;5012584;28;20692;-70
2022/10/27 08:04:22;;;;;;;1.43;1.10;;;15.00;99.90;;;;;;5011104;28;20209;-70
2022/10/27 08:06:49;;;;;;;1.37;1.27;;;15.10;99.90;;;;;;5005982;28;20296;-69
2022/10/27 08:09:16;;;;;;;1.57;1.47;;;15.40;99.90;;;;;;5013968;28;20212;-69
2022/10/27 08:11:43;;;;;;;1.10;1.00;;;15.50;99.90;;;;;;5014123;28;20225;-69
2022/10/27 08:14:10;;;;;;;1.20;1.10;;;15.60;99.90;;;;;;5012279;28;20197;-69
2022/10/27 08:16:39;;;;;;;1.17;1.10;;;15.80;99.90;;;;;;5014445;28;20236;-64
2022/10/27 08:19:05;;;;;;;1.07;1.00;;;15.90;99.90;;;;;;5007993;28;20206;-69
2022/10/27 08:21:32;;;;;;;1.07;1.07;;;16.10;99.90;;;;;;5009164;28;20233;-71
2022/10/27 08:23:59;;;;;;;1.47;1.37;;;16.30;99.90;;;;;;5006679;28;20237;-69
2022/10/27 08:26:26;;;;;;;1.00;1.00;;;16.40;99.90;;;;;;5014134;28;20201;-68
2022/10/27 08:28:53;;;;;;;1.27;1.20;;;16.50;99.90;;;;;;5013840;28;20221;-71
2022/10/27 08:31:21;;;;;;;1.50;1.30;;;16.70;99.90;;;;;;5014082;28;20678;-67
2022/10/27 08:33:49;;;;;;;1.43;1.33;;;16.80;99.90;;;;;;5013093;28;20207;-70
2022/10/27 08:36:17;;;;;;;1.57;1.27;;;16.90;99.90;;;;;;5007256;28;20208;-70
2022/10/27 08:38:44;;;;;;;1.20;1.10;;;17.10;99.90;;;;;;5013729;28;20220;-69
2022/10/27 08:41:20;;;;;;;1.33;1.23;;;17.20;99.90;;;;;;5012546;28;20315;-68
2022/10/27 08:44:14;;;;;;;1.50;1.40;;;17.30;99.90;;;;;;5013590;28;20209;-70
2022/10/27 08:46:44;;;;;;;1.07;1.00;;;17.50;99.90;;;;;;5013829;28;20267;-68
2022/10/27 08:49:31;;;;;;;1.13;1.03;;;17.70;99.90;;;;;;5006718;28;20205;-69
2022/10/27 08:52:04;;;;;;;1.20;1.10;;;17.80;99.90;;;;;;5012648;28;20687;-69
2022/10/27 08:54:31;;;;;;;1.27;1.13;;;17.90;99.90;;;;;;5014199;28;20208;-68
2022/10/27 08:57:01;;;;;;;1.27;1.17;;;18.10;99.90;;;;;;5004711;28;20756;-70
2022/10/27 08:59:30;;;;;;;1.27;1.17;;;18.10;99.90;;;;;;5014057;28;20201;-68
2022/10/27 09:02:09;;;;;;;1.00;1.00;;;18.20;99.90;;;;;;5013310;28;20348;-68
2022/10/27 09:04:58;;;;;;;1.47;1.30;;;18.40;99.90;;;;;;5013728;28;20296;-69
2022/10/27 09:07:31;;;;;;;1.07;1.07;;;18.60;99.90;;;;;;5007980;28;20197;-68
2022/10/27 09:10:02;;;;;;;1.20;1.10;;;18.70;99.90;;;;;;5013752;28;20571;-71
2022/10/27 09:12:56;;;;;;;1.37;1.30;;;18.70;99.90;;;;;;5013470;28;20220;-68
2022/10/27 09:15:41;;;;;;;1.13;1.03;;;18.70;99.90;;;;;;5015691;28;20202;-73
2022/10/27 09:18:16;;;;;;;1.80;1.30;;;18.70;99.90;;;;;;5011562;28;20317;-70
2022/10/27 09:20:47;;;;;;;2.50;1.40;;;18.80;99.90;;;;;;5008892;28;20209;-70
2022/10/27 09:23:17;;;;;;;1.40;1.30;;;18.90;99.90;;;;;;5010846;28;20612;-68
2022/10/27 09:25:46;;;;;;;1.30;1.20;;;18.90;99.90;;;;;;5011717;28;20292;-70
2022/10/27 09:28:19;;;;;;;1.50;1.27;;;19.00;99.90;;;;;;5013641;28;20205;-68
2022/10/27 09:30:49;;;;;;;1.20;1.17;;;19.20;99.90;;;;;;5011961;28;20251;-70
2022/10/27 09:33:20;;;;;;;1.03;1.03;;;19.30;99.90;;;;;;5005040;28;20273;-70
2022/10/27 09:35:51;;;;;;;1.37;1.27;;;19.30;99.90;;;;;;5010554;28;20193;-69
2022/10/27 09:38:23;;;;;;;1.30;1.20;;;19.40;99.90;;;;;;5008496;28;20201;-69
2022/10/27 09:40:51;;;;;;;1.40;1.30;;;19.40;99.90;;;;;;5004507;28;20221;-68
2022/10/27 09:43:20;;;;;;;1.20;1.10;;;19.50;99.90;;;;;;5006551;28;20280;-69
2022/10/27 09:45:54;;;;;;;1.20;1.10;;;19.60;99.90;;;;;;5006758;28;20206;-69
2022/10/27 09:48:24;;;;;;;1.30;1.20;;;19.70;99.90;;;;;;5002738;28;20241;-69
2022/10/27 09:50:54;;;;;;;2.20;1.40;;;19.60;99.90;;;;;;5010256;28;20229;-70
2022/10/27 09:53:40;;;;;;;1.27;1.00;;;19.70;99.90;;;;;;5012210;28;20194;-69
2022/10/27 09:56:11;;;;;;;1.33;1.23;;;19.70;99.90;;;;;;5010809;28;20228;-70
2022/10/27 09:58:46;;;;;;;1.20;1.20;;;19.80;99.90;;;;;;5012483;28;20205;-67
2022/10/27 10:01:13;;;;;;;1.30;1.20;;;19.80;99.90;;;;;;5011500;28;20300;-69
2022/10/27 10:03:40;;;;;;;3.03;1.50;;;19.90;99.90;;;;;;5007411;28;20206;-69
2022/10/27 10:06:25;;;;;;;1.57;1.23;;;19.90;99.90;;;;;;5006420;28;20205;-71
2022/10/27 10:08:52;;;;;;;1.47;1.37;;;20.00;99.90;;;;;;5014906;28;20205;-67
2022/10/27 10:11:21;;;;;;;1.60;1.30;;;20.00;99.90;;;;;;5006948;28;20226;-70
2022/10/27 10:13:57;;;;;;;1.40;1.30;;;20.00;99.90;;;;;;5007208;28;20232;-71
2022/10/27 10:16:24;;;;;;;1.50;1.40;;;20.10;99.90;;;;;;5010107;28;20212;-69
2022/10/27 10:19:01;;;;;;;1.53;1.43;;;20.00;99.90;;;;;;5005175;28;20204;-67
2022/10/27 10:21:44;;;;;;;1.20;1.20;;;20.10;99.90;;;;;;5015904;28;20233;-70
2022/10/27 10:24:18;;;;;;;1.15;1.15;;;20.20;99.90;;;;;;5026592;23;20229;-63
2022/10/27 10:26:51;;;;;;;1.47;1.37;;;20.20;99.90;;;;;;5013034;28;20589;-64
2022/10/27 10:29:27;;;;;;;1.57;1.20;;;20.30;99.90;;;;;;5006691;28;20201;-63
2022/10/27 10:32:07;;;;;;;1.33;1.20;;;20.30;99.90;;;;;;5012407;28;20207;-63
2022/10/27 10:34:35;;;;;;;2.67;1.20;;;20.30;99.90;;;;;;5029691;28;20238;-62
2022/10/27 10:37:04;;;;;;;1.37;1.27;;;20.40;99.90;;;;;;5039494;28;20591;-63
2022/10/27 10:39:36;;;;;;;1.47;1.30;;;20.40;99.90;;;;;;5038056;28;20201;-63
2022/10/27 10:42:14;;;;;;;1.20;1.20;;;20.40;99.90;;;;;;5033834;28;20690;-62
2022/10/27 10:44:41;;;;;;;1.30;1.20;;;20.50;99.90;;;;;;5029432;28;20238;-63
2022/10/27 10:47:23;;;;;;;1.30;1.13;;;20.60;99.90;;;;;;5035474;28;20269;-61
2022/10/27 10:49:52;;;;;;;1.25;1.10;;;20.70;99.90;;;;;;5051451;28;20200;-63
2022/10/27 10:52:23;;;;;;;1.30;1.20;;;20.80;99.90;;;;;;5042224;28;20225;-62
2022/10/27 10:54:50;;;;;;;1.20;1.10;;;20.90;99.90;;;;;;5033071;28;20205;-64
2022/10/27 10:57:26;;;;;;;1.37;1.23;;;20.90;99.90;;;;;;5028735;28;20211;-63
2022/10/27 10:59:55;;;;;;;1.30;1.20;;;21.10;99.90;;;;;;5032661;28;20204;-63
2022/10/27 11:02:29;;;;;;;1.20;1.20;;;21.20;99.90;;;;;;5023068;28;20224;-62
2022/10/27 11:04:57;;;;;;;1.03;1.03;;;21.30;99.90;;;;;;5029670;28;20212;-63
2022/10/27 11:07:27;;;;;;;1.53;1.27;;;21.30;99.90;;;;;;5031533;28;20254;-61
2022/10/27 11:10:02;;;;;;;1.40;1.30;;;21.40;99.90;;;;;;5031152;28;20259;-65
2022/10/27 11:12:36;;;;;;;1.73;1.10;;;21.50;99.90;;;;;;5031169;28;20218;-63
2022/10/27 11:15:13;;;;;;;1.10;1.10;;;21.60;99.90;;;;;;5033785;28;20205;-63
2022/10/27 11:17:43;;;;;;;1.48;1.35;;;21.60;99.90;;;;;;5035050;28;20196;-64
2022/10/27 11:20:18;;;;;;;1.47;1.37;;;21.60;99.90;;;;;;5035127;28;20211;-62
2022/10/27 11:22:48;;;;;;;1.17;1.07;;;21.50;99.90;;;;;;5030540;28;20232;-63
2022/10/27 11:25:19;;;;;;;1.40;1.30;;;21.60;99.90;;;;;;5026532;28;20204;-63
2022/10/27 11:27:59;;;;;;;1.27;1.17;;;21.70;99.90;;;;;;5033808;28;20561;-63
2022/10/27 11:30:28;;;;;;;2.20;1.53;;;21.60;99.90;;;;;;5025933;28;20617;-64
2022/10/27 11:33:06;;;;;;;1.60;1.40;;;21.60;99.90;;;;;;5032514;28;20221;-63
2022/10/27 11:35:38;;;;;;;1.47;1.37;;;21.40;99.90;;;;;;5030077;28;20207;-61
2022/10/27 11:38:14;;;;;;;1.50;1.40;;;21.50;99.90;;;;;;5030302;28;20767;-62
2022/10/27 11:40:48;;;;;;;1.27;1.27;;;21.60;99.90;;;;;;5031434;28;20593;-64
2022/10/27 11:43:22;;;;;;;1.30;1.20;;;21.60;99.90;;;;;;5026983;28;20711;-64
2022/10/27 11:45:54;;;;;;;1.23;1.17;;;21.70;99.90;;;;;;5032070;28;20590;-63
2022/10/27 11:48:24;;;;;;;1.30;1.20;;;21.70;99.90;;;;;;5027869;28;20205;-66
2022/10/27 11:50:55;;;;;;;1.40;1.30;;;21.70;99.90;;;;;;5032211;28;20682;-63
2022/10/27 11:53:23;;;;;;;1.17;1.17;;;21.70;99.90;;;;;;5034301;28;20596;-62
2022/10/27 11:56:27;;;;;;;1.53;1.30;;;21.80;99.90;;;;;;5031394;28;20381;-63
2022/10/27 11:59:08;;;;;;;1.50;1.20;;;21.90;99.90;;;;;;5024404;28;20688;-62
2022/10/27 12:01:48;;;;;;;1.30;1.20;;;22.00;99.90;;;;;;5031682;28;20211;-63
2022/10/27 12:04:25;;;;;;;1.40;1.30;;;22.00;99.90;;;;;;5036900;28;20721;-63
2022/10/27 12:07:03;;;;;;;2.20;1.50;;;22.00;99.90;;;;;;5034219;28;20208;-63
2022/10/27 12:09:45;;;;;;;1.37;1.27;;;22.10;99.90;;;;;;5039436;28;20204;-61
2022/10/27 12:12:18;;;;;;;1.43;1.23;;;22.10;99.90;;;;;;5028487;28;20197;-62
2022/10/27 12:14:53;;;;;;;1.40;1.30;;;22.10;99.90;;;;;;5036911;28;20212;-65
2022/10/27 12:17:27;;;;;;;1.43;1.33;;;22.20;99.90;;;;;;5033927;28;20211;-65
2022/10/27 12:19:56;;;;;;;2.10;1.43;;;22.20;99.90;;;;;;5032515;28;20215;-63
2022/10/27 12:22:29;;;;;;;1.27;1.20;;;22.20;99.90;;;;;;5033409;28;20225;-64
2022/10/27 12:25:02;;;;;;;1.27;1.17;;;22.20;99.90;;;;;;5035474;28;20264;-63
2022/10/27 12:27:34;;;;;;;1.30;1.20;;;22.10;99.90;;;;;;5027430;28;20685;-62
2022/10/27 12:30:08;;;;;;;2.23;1.60;;;22.20;99.90;;;;;;5029682;28;20211;-63
2022/10/27 12:32:39;;;;;;;1.33;1.23;;;22.20;99.90;;;;;;5039468;28;20207;-63
2022/10/27 12:35:12;;;;;;;1.13;1.10;;;22.30;99.90;;;;;;5042199;28;20291;-63
2022/10/27 12:37:44;;;;;;;1.33;1.23;;;22.40;99.90;;;;;;5038977;28;20205;-63
2022/10/27 12:40:23;;;;;;;1.30;1.20;;;22.40;99.90;;;;;;5025977;28;20205;-62
2022/10/27 12:42:57;;;;;;;1.40;1.30;;;22.50;99.90;;;;;;5033736;28;20686;-63
2022/10/27 12:45:40;;;;;;;1.40;1.30;;;22.60;99.90;;;;;;5028623;28;20283;-63
2022/10/27 12:48:17;;;;;;;1.40;1.30;;;22.60;99.90;;;;;;5034263;28;20211;-63
2022/10/27 12:50:54;;;;;;;2.40;1.30;;;22.70;99.90;;;;;;5029225;28;20208;-63
2022/10/27 12:53:31;;;;;;;2.03;1.60;;;22.70;99.90;;;;;;5031688;28;20224;-62
2022/10/27 12:56:04;;;;;;;1.40;1.30;;;22.80;99.90;;;;;;5036417;28;20200;-62
2022/10/27 12:58:41;;;;;;;1.27;1.20;;;22.80;99.90;;;;;;5039604;28;20204;-61
2022/10/27 13:01:19;;;;;;;1.43;1.33;;;22.80;99.90;;;;;;5023587;28;20200;-62
2022/10/27 13:04:10;;;;;;;1.53;1.40;;;22.90;99.90;;;;;;5028766;28;20228;-64